createdAt,value
2022-12-23T00:01:41.707Z,99912.41
2022-12-23T00:04:10.523Z,99926.22
2022-12-23T00:06:40.246Z,99922.69
2022-12-23T00:09:08.855Z,99914.03
2022-12-23T00:12:00.033Z,99913.06
2022-12-23T00:14:47.134Z,99905.44
2022-12-23T00:17:22.696Z,99901.00
2022-12-23T00:19:52.859Z,99897.56
2022-12-23T00:22:44.554Z,99889.25
2022-12-23T00:25:14.212Z,99888.22
2022-12-23T00:27:42.536Z,99902.00
2022-12-23T00:30:12.324Z,99878.47
2022-12-23T00:32:42.029Z,99875.78
2022-12-23T00:35:10.667Z,99869.25
2022-12-23T00:37:40.363Z,99864.03
2022-12-23T00:40:30.588Z,99869.75
2022-12-23T00:42:59.092Z,99866.25
2022-12-23T00:45:27.626Z,99860.53
2022-12-23T00:48:13.533Z,99862.31
2022-12-23T00:50:42.009Z,99848.44
2022-12-23T00:53:11.744Z,99836.25
2022-12-23T00:55:40.924Z,99832.63
2022-12-23T00:58:09.221Z,99840.44
2022-12-23T01:00:54.996Z,99838.88
2022-12-23T01:03:40.650Z,99823.81
2022-12-23T01:06:09.171Z,99821.72
2022-12-23T01:08:40.379Z,99815.34
2022-12-23T01:11:11.821Z,99819.34
2022-12-23T01:13:40.688Z,99808.75
2022-12-23T01:16:16.853Z,99803.16
2022-12-23T01:18:46.206Z,99805.03
2022-12-23T01:21:15.011Z,99786.72
2022-12-23T01:23:44.880Z,99796.31
2022-12-23T01:26:13.758Z,99794.44
2022-12-23T01:28:42.087Z,99785.88
2022-12-23T01:31:11.787Z,99781.59
2022-12-23T01:33:40.244Z,99792.75
2022-12-23T01:36:09.918Z,99806.63
2022-12-23T01:38:38.296Z,99792.75
2022-12-23T01:41:09.014Z,99810.06
2022-12-23T01:43:46.557Z,99807.28
2022-12-23T01:46:16.140Z,99809.22
2022-12-23T01:48:50.338Z,99812.78
2022-12-23T01:51:25.030Z,99825.81
2022-12-23T01:53:57.010Z,99825.31
2022-12-23T01:56:31.560Z,99809.41
2022-12-23T01:59:03.880Z,99790.69
2022-12-23T02:01:50.128Z,99773.97
2022-12-23T02:04:21.967Z,99780.84
2022-12-23T02:07:09.507Z,99772.47
2022-12-23T02:09:40.402Z,99762.97
2022-12-23T02:12:43.219Z,99769.84
2022-12-23T02:15:39.612Z,99763.72
2022-12-23T02:18:30.350Z,99762.16
2022-12-23T02:21:41.368Z,99764.28
2022-12-23T02:24:34.847Z,99763.44
2022-12-23T02:27:27.231Z,99762.84
2022-12-23T02:30:40.357Z,99756.22
2022-12-23T02:33:32.317Z,99772.88
2022-12-23T02:36:18.185Z,99757.06
2022-12-23T02:38:54.360Z,99779.06
2022-12-23T02:41:28.629Z,99791.66
2022-12-23T02:44:01.490Z,99771.34
2022-12-23T02:46:34.904Z,99767.50
2022-12-23T02:49:09.166Z,99771.34
2022-12-23T02:51:44.160Z,99764.19
2022-12-23T02:54:17.308Z,99769.31
2022-12-23T02:56:50.455Z,99777.00
2022-12-23T02:59:21.756Z,99774.34
2022-12-23T03:01:53.265Z,99777.19
2022-12-23T03:04:21.932Z,99762.41
2022-12-23T03:06:55.296Z,99754.97
2022-12-23T03:09:31.624Z,99754.19
2022-12-23T03:12:12.742Z,99741.84
2022-12-23T03:14:59.558Z,99747.88
2022-12-23T03:17:48.604Z,99732.44
2022-12-23T03:20:25.129Z,99736.75
2022-12-23T03:23:02.425Z,99723.09
2022-12-23T03:25:36.701Z,99721.44
2022-12-23T03:28:10.725Z,99723.22
2022-12-23T03:30:44.887Z,99726.31
2022-12-23T03:33:18.558Z,99717.91
2022-12-23T03:35:53.035Z,99704.97
2022-12-23T03:38:24.706Z,99709.25
2022-12-23T03:40:56.292Z,99715.84
2022-12-23T03:43:29.417Z,99727.66
2022-12-23T03:46:05.704Z,99713.06
2022-12-23T03:48:37.634Z,99697.06
2022-12-23T03:51:12.639Z,99691.69
2022-12-23T03:53:46.248Z,99705.47
2022-12-23T03:56:21.137Z,99697.06
2022-12-23T03:58:56.441Z,99693.91
2022-12-23T04:01:32.809Z,99668.53
2022-12-23T04:04:05.418Z,99607.22
2022-12-23T04:06:40.710Z,99597.25
2022-12-23T04:09:12.674Z,99491.84
2022-12-23T04:11:42.797Z,99506.97
2022-12-23T04:14:11.899Z,99530.41
2022-12-23T04:16:40.514Z,99527.78
2022-12-23T04:19:08.955Z,99541.66
2022-12-23T04:21:37.692Z,99548.81
2022-12-23T04:24:07.085Z,99566.84
2022-12-23T04:26:36.933Z,99616.81
2022-12-23T04:29:05.410Z,99634.31
2022-12-23T04:31:34.441Z,99636.31
2022-12-23T04:34:03.638Z,99620.38
2022-12-23T04:36:31.961Z,99610.50
2022-12-23T04:39:00.272Z,99618.09
2022-12-23T04:41:28.900Z,99623.19
2022-12-23T04:43:58.635Z,99613.00
2022-12-23T04:46:27.047Z,99594.34
2022-12-23T04:48:56.468Z,99578.41
2022-12-23T04:51:24.984Z,99585.28
2022-12-23T04:53:53.416Z,99581.66
2022-12-23T04:56:21.719Z,99586.78
2022-12-23T04:58:50.072Z,99589.59
2022-12-23T05:01:19.985Z,99614.88
2022-12-23T05:03:48.280Z,99614.41
2022-12-23T05:06:17.736Z,99629.97
2022-12-23T05:08:46.397Z,99623.91
2022-12-23T05:11:15.027Z,99635.41
2022-12-23T05:13:43.428Z,99622.78
2022-12-23T05:16:12.263Z,99632.81
2022-12-23T05:18:42.374Z,99623.25
2022-12-23T05:21:11.610Z,99619.63
2022-12-23T05:23:40.597Z,99603.91
2022-12-23T05:26:09.487Z,99610.31
2022-12-23T05:28:37.861Z,99603.34
2022-12-23T05:31:08.467Z,99582.50
2022-12-23T05:33:37.430Z,99583.22
2022-12-23T05:36:08.087Z,99584.25
2022-12-23T05:38:36.545Z,99572.28
2022-12-23T05:41:05.312Z,99574.75
2022-12-23T05:43:34.300Z,99556.56
2022-12-23T05:46:02.648Z,99557.13
2022-12-23T05:48:31.107Z,99564.09
2022-12-23T05:50:59.737Z,99557.22
2022-12-23T05:53:29.495Z,99559.63
2022-12-23T05:55:57.849Z,99546.41
2022-12-23T05:58:28.197Z,99558.16
2022-12-23T06:00:56.800Z,99563.16
2022-12-23T06:03:25.312Z,99551.06
2022-12-23T06:05:56.807Z,99550.72
2022-12-23T06:08:25.347Z,99550.59
2022-12-23T06:10:55.553Z,99550.06
2022-12-23T06:13:24.244Z,99556.00
2022-12-23T06:15:52.566Z,99557.28
2022-12-23T06:18:20.893Z,99557.00
2022-12-23T06:20:49.672Z,99555.78
2022-12-23T06:23:18.393Z,99567.03
2022-12-23T06:25:47.004Z,99568.88
2022-12-23T06:28:18.066Z,99563.28
2022-12-23T06:30:46.421Z,99572.69
2022-12-23T06:33:14.760Z,99562.38
2022-12-23T06:35:45.121Z,99561.53
2022-12-23T06:38:13.884Z,99559.03
2022-12-23T06:40:42.450Z,99562.66
2022-12-23T06:43:13.759Z,99573.63
2022-12-23T06:45:48.260Z,99561.06
2022-12-23T06:48:17.318Z,99569.25
2022-12-23T06:50:46.475Z,99566.84
2022-12-23T06:53:15.616Z,99574.53
2022-12-23T06:55:44.073Z,99577.78
2022-12-23T06:58:12.367Z,99580.22
2022-12-23T07:00:41.011Z,99570.63
2022-12-23T07:03:11.406Z,99584.41
2022-12-23T07:05:41.253Z,99587.19
2022-12-23T07:08:09.911Z,99601.81
2022-12-23T07:10:38.296Z,99605.13
2022-12-23T07:13:07.157Z,99598.16
2022-12-23T07:15:35.465Z,99596.47
2022-12-23T07:18:03.829Z,99594.00
2022-12-23T07:20:33.589Z,99602.72
2022-12-23T07:23:01.926Z,99605.41
2022-12-23T07:25:30.251Z,99614.00
2022-12-23T07:27:58.648Z,99593.53
2022-12-23T07:30:27.033Z,99602.81
2022-12-23T07:32:55.405Z,99601.16
2022-12-23T07:35:23.741Z,99600.31
2022-12-23T07:37:55.666Z,99599.41
2022-12-23T07:40:24.311Z,99585.16
2022-12-23T07:42:56.950Z,99598.84
2022-12-23T07:45:25.470Z,99604.81
2022-12-23T07:47:54.789Z,99606.44
2022-12-23T07:50:23.843Z,99609.06
2022-12-23T07:52:54.181Z,99608.53
2022-12-23T07:55:23.307Z,99622.28
2022-12-23T07:57:53.014Z,99605.72
2022-12-23T08:00:22.160Z,99610.19
2022-12-23T08:02:50.642Z,99622.19
2022-12-23T08:05:19.554Z,99628.97
2022-12-23T08:07:50.085Z,99634.59
2022-12-23T08:10:20.342Z,99638.75
2022-12-23T08:12:48.764Z,99642.47
2022-12-23T08:15:17.171Z,99646.66
2022-12-23T08:17:45.517Z,99658.75
2022-12-23T08:20:14.044Z,99654.97
2022-12-23T08:22:42.335Z,99659.16
2022-12-23T08:25:10.924Z,99663.50
2022-12-23T08:27:40.584Z,99664.34
2022-12-23T08:30:10.229Z,99669.75
2022-12-23T08:32:38.547Z,99666.50
2022-12-23T08:35:08.108Z,99662.88
2022-12-23T08:37:37.435Z,99673.66
2022-12-23T08:40:06.505Z,99672.81
2022-12-23T08:42:34.817Z,99677.13
2022-12-23T08:45:04.697Z,99680.47
2022-12-23T08:47:34.291Z,99690.50
2022-12-23T08:50:02.704Z,99685.38
2022-12-23T08:52:30.987Z,99693.00
2022-12-23T08:54:59.336Z,99698.03
2022-12-23T08:57:28.037Z,99711.81
2022-12-23T08:59:56.311Z,99697.09
2022-12-23T09:02:26.174Z,99709.03
2022-12-23T09:04:54.632Z,99703.06
2022-12-23T09:07:23.037Z,99707.25
2022-12-23T09:09:51.756Z,99707.16
2022-12-23T09:12:21.985Z,99701.22
2022-12-23T09:14:50.518Z,99724.00
2022-12-23T09:17:19.055Z,99729.88
2022-12-23T09:19:52.950Z,99731.53
2022-12-23T09:22:21.760Z,99735.91
2022-12-23T09:24:50.076Z,99735.63
2022-12-23T09:27:18.768Z,99731.81
2022-12-23T09:29:48.140Z,99737.50
2022-12-23T09:32:16.684Z,99736.72
2022-12-23T09:34:45.056Z,99736.84
2022-12-23T09:37:16.864Z,99733.59
2022-12-23T09:39:45.157Z,99743.44
2022-12-23T09:42:29.548Z,99746.44
2022-12-23T09:45:17.829Z,99757.75
2022-12-23T09:47:46.701Z,99748.84
2022-12-23T09:50:22.672Z,99755.75
2022-12-23T09:53:01.831Z,99757.31
2022-12-23T09:55:39.025Z,99761.69
2022-12-23T09:58:14.900Z,99765.88
2022-12-23T10:00:50.070Z,99767.47
2022-12-23T10:03:23.847Z,99778.91
2022-12-23T10:06:04.263Z,99778.34
2022-12-23T10:08:38.093Z,99788.66
2022-12-23T10:11:14.969Z,99794.25
2022-12-23T10:13:46.571Z,99790.13
2022-12-23T10:16:19.908Z,99808.56
2022-12-23T10:18:54.630Z,99808.38
2022-12-23T10:21:31.366Z,99817.81
2022-12-23T10:24:06.193Z,99829.69
2022-12-23T10:26:44.201Z,99819.66
2022-12-23T10:29:19.428Z,99829.63
2022-12-23T10:32:00.908Z,99833.72
2022-12-23T10:34:40.859Z,99834.38
2022-12-23T10:37:15.419Z,99835.97
2022-12-23T10:39:52.192Z,99839.59
2022-12-23T10:42:28.391Z,99835.13
2022-12-23T10:45:18.553Z,99838.03
2022-12-23T10:47:59.272Z,99835.31
2022-12-23T10:50:50.934Z,99844.16
2022-12-23T10:53:30.735Z,99843.78
2022-12-23T10:56:01.455Z,99847.31
2022-12-23T10:58:30.057Z,99855.59
2022-12-23T11:01:00.660Z,99845.66
2022-12-23T11:03:31.188Z,99854.66
2022-12-23T11:06:00.657Z,99860.44
2022-12-23T11:08:32.391Z,99865.59
2022-12-23T11:11:02.535Z,99877.31
2022-12-23T11:13:39.753Z,99880.09
2022-12-23T11:16:16.463Z,99887.16
2022-12-23T11:18:58.310Z,99882.13
2022-12-23T11:21:27.261Z,99890.69
2022-12-23T11:24:19.196Z,99889.19
2022-12-23T11:26:51.705Z,99884.63
2022-12-23T11:29:25.956Z,99882.69
2022-12-23T11:31:54.760Z,99888.44
2022-12-23T11:34:25.514Z,99894.97
2022-12-23T11:37:01.564Z,99892.38
2022-12-23T11:39:34.487Z,99901.81
2022-12-23T11:42:13.979Z,99893.78
2022-12-23T11:44:45.177Z,99887.75
2022-12-23T11:47:37.141Z,99889.41
2022-12-23T11:50:29.036Z,99903.09
2022-12-23T11:53:05.812Z,99888.47
2022-12-23T11:55:34.316Z,99892.50
2022-12-23T11:58:04.797Z,99897.06
2022-12-23T12:00:41.251Z,99893.53
2022-12-23T12:03:19.171Z,99892.94
2022-12-23T12:05:51.078Z,99891.19
2022-12-23T12:08:23.575Z,99878.34
2022-12-23T12:10:54.193Z,99882.53
2022-12-23T12:13:30.267Z,99889.22
2022-12-23T12:16:09.125Z,99893.34
2022-12-23T12:18:38.499Z,99889.41
2022-12-23T12:21:11.852Z,99890.66
2022-12-23T12:23:45.435Z,99894.25
2022-12-23T12:26:20.234Z,99894.19
2022-12-23T12:28:58.391Z,99905.34
2022-12-23T12:31:33.329Z,99917.38
2022-12-23T12:34:05.725Z,99910.56
2022-12-23T12:36:43.159Z,99919.88
2022-12-23T12:39:19.608Z,99914.28
2022-12-23T12:41:52.797Z,99908.41
2022-12-23T12:44:33.369Z,99900.69
2022-12-23T12:47:27.870Z,99913.44
2022-12-23T12:50:01.709Z,99910.50
2022-12-23T12:52:37.739Z,99910.00
2022-12-23T12:55:15.185Z,99922.38
2022-12-23T12:57:43.651Z,99920.16
2022-12-23T13:00:19.487Z,99923.53
2022-12-23T13:03:13.931Z,99920.91
2022-12-23T13:06:07.507Z,99924.81
2022-12-23T13:08:56.612Z,99930.63
2022-12-23T13:11:32.041Z,99932.59
2022-12-23T13:14:05.384Z,99944.59
2022-12-23T13:16:45.779Z,99940.41
2022-12-23T13:19:27.504Z,99929.13
2022-12-23T13:22:02.868Z,99934.81
2022-12-23T13:24:37.789Z,99946.44
2022-12-23T13:27:12.505Z,99945.59
2022-12-23T13:29:58.265Z,99962.28
2022-12-23T13:32:57.394Z,99963.94
2022-12-23T13:35:37.731Z,99966.13
2022-12-23T13:38:18.593Z,99962.91
2022-12-23T13:40:55.326Z,99956.25
2022-12-23T13:43:27.639Z,99956.38
2022-12-23T13:46:00.082Z,99969.25
2022-12-23T13:48:39.621Z,99957.72
2022-12-23T13:51:15.316Z,99965.66
2022-12-23T13:53:55.295Z,99964.03
2022-12-23T13:56:34.855Z,99969.25
2022-12-23T13:59:03.269Z,99979.84
2022-12-23T14:01:37.856Z,99970.63
2022-12-23T14:04:34.544Z,99974.63
2022-12-23T14:07:05.428Z,99974.03
2022-12-23T14:09:37.221Z,99984.97
2022-12-23T14:12:18.663Z,99983.41
2022-12-23T14:14:59.898Z,99980.88
2022-12-23T14:17:39.648Z,99982.56
2022-12-23T14:20:27.955Z,99977.16
2022-12-23T14:23:18.960Z,99974.75
2022-12-23T14:26:04.379Z,99990.78
2022-12-23T14:28:59.321Z,99985.28
2022-12-23T14:31:33.486Z,99989.88
2022-12-23T14:34:07.878Z,99993.28
2022-12-23T14:36:38.217Z,100000.91
2022-12-23T14:39:31.478Z,99990.38
2022-12-23T14:42:06.533Z,100000.38
2022-12-23T14:44:50.489Z,100012.28
2022-12-23T14:47:40.272Z,100007.81
2022-12-23T14:50:41.735Z,100014.72
2022-12-23T14:53:27.301Z,100015.56
2022-12-23T14:56:32.087Z,100018.41
2022-12-23T14:59:14.092Z,100018.19
2022-12-23T15:01:45.620Z,100017.09
2022-12-23T15:04:20.067Z,100016.06
2022-12-23T15:06:50.765Z,100022.31
2022-12-23T15:09:26.044Z,100015.50
2022-12-23T15:11:55.996Z,100010.59
2022-12-23T15:14:34.698Z,100017.69
2022-12-23T15:17:16.551Z,100007.44
2022-12-23T15:19:46.419Z,100015.13
2022-12-23T15:22:22.737Z,100012.28
2022-12-23T15:24:55.410Z,100018.41
2022-12-23T15:27:29.420Z,100022.78
2022-12-23T15:29:59.210Z,100013.91
2022-12-23T15:32:29.216Z,100019.25
2022-12-23T15:35:05.432Z,100027.81
2022-12-23T15:37:35.158Z,100009.06
2022-12-23T15:40:12.691Z,100018.66
2022-12-23T15:42:48.976Z,100018.13
2022-12-23T15:45:32.336Z,100021.69
2022-12-23T15:48:00.728Z,100023.34
2022-12-23T15:50:30.323Z,100034.88
2022-12-23T15:53:04.787Z,100039.25
2022-12-23T15:55:37.286Z,100029.06
2022-12-23T16:32:01.735Z,100049.91
2022-12-23T16:42:46.689Z,100053.16
2022-12-23T16:46:38.087Z,100062.63
2022-12-23T16:50:47.423Z,100068.94
2022-12-23T16:53:47.977Z,100057.75
2022-12-23T16:56:53.953Z,100055.25
2022-12-23T18:27:09.602Z,100131.66
2022-12-23T18:28:35.601Z,100131.81
2022-12-23T18:31:04.038Z,100137.53
2022-12-23T18:33:32.380Z,100139.25
2022-12-23T18:36:00.786Z,100133.19
2022-12-23T18:38:40.518Z,100135.72
2022-12-23T18:41:18.542Z,100128.00
2022-12-23T18:43:51.177Z,100130.00
2022-12-23T18:46:23.255Z,100118.28
2022-12-23T18:49:06.301Z,100122.63
2022-12-23T18:51:48.008Z,100127.06
2022-12-23T18:54:24.672Z,100128.50
2022-12-23T18:56:55.713Z,100131.28
2022-12-23T18:59:30.204Z,100136.03
2022-12-23T19:02:08.968Z,100136.56
2022-12-23T19:04:50.077Z,100141.63
2022-12-23T19:07:43.313Z,100131.22
2022-12-23T19:10:37.597Z,100128.84
2022-12-23T19:13:11.558Z,100127.06
2022-12-23T19:15:52.366Z,100144.97
2022-12-23T19:18:33.416Z,100138.16
2022-12-23T19:21:42.167Z,100136.56
2022-12-23T19:24:25.079Z,100125.91
2022-12-23T19:27:24.441Z,100138.34
2022-12-23T19:29:57.112Z,100137.38
2022-12-23T19:32:35.029Z,100136.63
2022-12-23T19:35:12.895Z,100135.63
2022-12-23T19:40:00.138Z,100140.00
2022-12-23T19:42:17.339Z,100124.31
2022-12-23T19:44:58.065Z,100119.28
2022-12-23T19:47:28.044Z,100128.84
2022-12-23T19:49:59.400Z,100122.09
2022-12-23T19:52:57.652Z,100117.69
2022-12-23T19:55:30.451Z,100117.41
2022-12-23T19:58:06.608Z,100135.78
2022-12-23T20:00:55.855Z,100134.78
2022-12-23T20:03:34.695Z,100144.44
2022-12-23T20:06:28.593Z,100150.00
2022-12-23T20:09:19.373Z,100140.56
2022-12-23T20:12:28.308Z,100157.81
2022-12-23T20:15:39.143Z,100149.56
2022-12-23T20:18:14.031Z,100155.78
2022-12-23T20:21:12.218Z,100157.69
2022-12-23T20:24:44.993Z,100158.75
2022-12-23T20:28:03.644Z,100162.25
2022-12-23T20:31:26.197Z,100165.00
2022-12-23T20:34:25.521Z,100167.91
2022-12-23T20:37:58.867Z,100165.59
2022-12-23T20:41:03.025Z,100173.94
2022-12-23T20:47:19.584Z,100161.66
2022-12-23T20:54:31.725Z,100180.25
2022-12-23T20:58:27.829Z,100172.59
2022-12-23T21:01:35.299Z,100175.03
2022-12-23T21:07:44.422Z,100170.69
2022-12-23T21:10:54.745Z,100166.28
2022-12-23T21:13:54.187Z,100165.53
2022-12-23T21:16:56.454Z,100167.16
2022-12-23T21:20:07.032Z,100166.09
2022-12-23T21:23:06.722Z,100166.09
2022-12-23T21:25:35.136Z,100180.00
2022-12-23T21:28:23.219Z,100186.69
2022-12-23T23:34:20.755Z,100212.59
